Terminal Aerodrome Forecast
Issued by NWS Duluth, MN

Home | Current Version | Previous Version | Text Only | Print | Product List | Glossary On
Versions: 1 2 3 4 5 6 7 8 9 10 11 12 13 14 15
059
FTUS43 KDLH 261136
TAFDLH
TAF
KDLH 261136Z 2612/2712 07015G25KT P6SM OVC005
     FM261500 07015G25KT P6SM BKN015
     FM261800 07015G25KT P6SM SCT035
     FM270200 07010KT P6SM SKC=

USA.gov is the U.S. government's official web portal to all federal, state and local government web resources and services.